Time;durP1;ratioP1;P1;durP2;ratioP2;P2;SDS_P1;SDS_P2;PMS_P1;PMS_P2;Temp;Humidity;BMP_temperature;BMP_pressure;BME280_temperature;BME280_humidity;BME280_pressure;Samples;Min_cycle;Max_cycle;Signal;HPM_P1;HPM_P2
2023/07/03 00:01:41;;;;;;;6.97;3.50;;;16.60;99.90;;;;;;5073927;28;20453;-84
2023/07/03 00:04:10;;;;;;;11.67;3.00;;;16.60;99.90;;;;;;5074260;28;20433;-84
2023/07/03 00:06:37;;;;;;;7.90;3.03;;;16.60;99.90;;;;;;5073444;28;20484;-84
2023/07/03 00:09:05;;;;;;;7.30;3.30;;;16.60;99.90;;;;;;5073486;28;20464;-84
2023/07/03 00:11:32;;;;;;;10.37;3.33;;;16.50;99.90;;;;;;5073482;28;20956;-84
2023/07/03 00:13:58;;;;;;;7.63;3.20;;;16.50;99.90;;;;;;5073453;28;20974;-83
2023/07/03 00:16:25;;;;;;;8.17;4.17;;;16.50;99.90;;;;;;5073670;28;20485;-84
2023/07/03 00:18:53;;;;;;;14.10;3.33;;;16.50;99.90;;;;;;5073317;28;20828;-84
2023/07/03 00:21:20;;;;;;;10.23;3.70;;;16.50;99.90;;;;;;5073654;28;20448;-84
2023/07/03 00:23:46;;;;;;;8.00;2.40;;;16.50;99.90;;;;;;5073602;28;20459;-84
2023/07/03 00:26:13;;;;;;;9.30;3.10;;;16.50;99.90;;;;;;5073619;28;20451;-84
2023/07/03 00:28:40;;;;;;;6.50;2.87;;;16.40;99.90;;;;;;5073176;28;20488;-84
2023/07/03 00:31:07;;;;;;;4.50;2.70;;;16.40;99.90;;;;;;5073177;28;20445;-84
2023/07/03 00:33:34;;;;;;;7.00;2.30;;;16.40;99.90;;;;;;5073527;28;20453;-84
2023/07/03 00:36:02;;;;;;;10.93;2.90;;;16.40;99.90;;;;;;5073238;28;20433;-84
2023/07/03 00:38:28;;;;;;;6.47;3.47;;;16.30;99.90;;;;;;5073329;28;20492;-84
2023/07/03 00:40:55;;;;;;;5.90;3.80;;;16.30;99.90;;;;;;5073413;28;20449;-84
2023/07/03 00:43:22;;;;;;;15.83;3.63;;;16.30;99.90;;;;;;5073081;28;20955;-84
2023/07/03 00:45:49;;;;;;;5.87;3.33;;;16.30;99.90;;;;;;5073099;28;20939;-84
2023/07/03 00:48:16;;;;;;;5.20;2.93;;;16.30;99.90;;;;;;5073241;28;20468;-84
2023/07/03 00:50:43;;;;;;;7.67;3.23;;;16.30;99.90;;;;;;5073334;28;20449;-84
2023/07/03 00:53:11;;;;;;;6.37;2.83;;;16.40;99.90;;;;;;5073329;28;20812;-84
2023/07/03 00:55:38;;;;;;;6.50;3.27;;;16.40;99.90;;;;;;5073302;28;20445;-84
2023/07/03 00:58:05;;;;;;;9.67;2.83;;;16.30;99.90;;;;;;5073117;28;20530;-84
2023/07/03 01:00:40;;;;;;;6.63;2.70;;;16.30;99.90;;;;;;5073245;28;20448;-84
2023/07/03 01:03:11;;;;;;;7.47;3.03;;;16.40;99.90;;;;;;5073136;28;20409;-84
2023/07/03 01:05:43;;;;;;;5.43;3.43;;;16.50;99.90;;;;;;5072937;28;20913;-84
2023/07/03 01:08:11;;;;;;;7.20;3.13;;;16.40;99.90;;;;;;5072820;28;20464;-85
2023/07/03 01:10:39;;;;;;;9.73;3.00;;;16.40;99.90;;;;;;5073179;28;20451;-85
2023/07/03 01:13:11;;;;;;;9.27;4.27;;;16.40;99.90;;;;;;5073429;28;20437;-84
2023/07/03 01:15:41;;;;;;;9.53;2.73;;;16.40;99.90;;;;;;5073115;28;20437;-85
2023/07/03 01:18:09;;;;;;;12.53;3.77;;;16.30;99.90;;;;;;5073432;28;20516;-84
2023/07/03 01:20:40;;;;;;;17.37;4.40;;;16.40;99.90;;;;;;5077074;28;20445;-84
2023/07/03 01:23:13;;;;;;;7.80;3.53;;;16.40;99.90;;;;;;5077000;28;20429;-84
2023/07/03 01:25:43;;;;;;;10.27;3.73;;;16.40;99.90;;;;;;5076961;28;20444;-85
2023/07/03 01:28:13;;;;;;;3.50;2.00;;;16.40;99.90;;;;;;5076582;28;20481;-84
2023/07/03 01:30:42;;;;;;;12.13;3.17;;;16.40;99.90;;;;;;5076823;28;20452;-84
2023/07/03 01:33:12;;;;;;;12.83;3.83;;;16.40;99.90;;;;;;5076765;28;20449;-85
2023/07/03 01:35:39;;;;;;;12.93;3.80;;;16.40;99.90;;;;;;5076449;28;20817;-84
2023/07/03 01:38:07;;;;;;;6.07;3.30;;;16.40;99.90;;;;;;5076557;28;20535;-84
2023/07/03 01:40:35;;;;;;;5.93;3.07;;;16.40;99.90;;;;;;5076672;28;20448;-84
2023/07/03 01:43:04;;;;;;;6.27;3.43;;;16.50;99.90;;;;;;5076607;28;20449;-85
2023/07/03 01:45:34;;;;;;;16.70;3.70;;;16.50;99.90;;;;;;5076254;28;20965;-84
2023/07/03 01:48:01;;;;;;;6.07;2.80;;;16.50;99.90;;;;;;5076415;28;20786;-84
2023/07/03 01:50:30;;;;;;;5.73;3.13;;;16.60;99.90;;;;;;5076480;28;20792;-85
2023/07/03 01:53:02;;;;;;;4.20;2.20;;;16.60;99.90;;;;;;5076446;28;20451;-84
2023/07/03 01:55:39;;;;;;;9.30;3.20;;;16.60;99.90;;;;;;5076415;28;20436;-84
2023/07/03 01:58:13;;;;;;;10.00;3.57;;;16.60;99.90;;;;;;5075974;28;21061;-84
2023/07/03 02:00:43;;;;;;;6.20;2.80;;;16.60;99.90;;;;;;5076317;28;20439;-84
2023/07/03 02:03:31;;;;;;;4.33;2.90;;;16.60;99.90;;;;;;5076330;28;20797;-85
2023/07/03 02:06:01;;;;;;;9.43;3.13;;;16.50;99.90;;;;;;5076244;28;20433;-84
2023/07/03 02:08:30;;;;;;;7.10;2.77;;;16.60;99.90;;;;;;5076098;28;20468;-84
2023/07/03 02:10:57;;;;;;;22.63;4.47;;;16.60;99.90;;;;;;5076115;28;20448;-85
2023/07/03 02:13:25;;;;;;;5.80;3.37;;;16.50;99.90;;;;;;5075754;28;20814;-84
2023/07/03 02:15:52;;;;;;;9.60;2.97;;;16.50;99.90;;;;;;5076033;28;20524;-84
2023/07/03 02:18:20;;;;;;;9.57;2.20;;;16.50;99.90;;;;;;5075523;28;20484;-84
2023/07/03 02:20:49;;;;;;;7.80;3.50;;;16.40;99.90;;;;;;5075648;28;20452;-83
2023/07/03 02:23:16;;;;;;;8.37;3.50;;;16.40;99.90;;;;;;5075916;28;20452;-84
2023/07/03 02:25:43;;;;;;;5.57;3.70;;;16.50;99.90;;;;;;5075529;28;20944;-84
2023/07/03 02:28:10;;;;;;;5.53;3.00;;;16.50;99.90;;;;;;5075455;28;20488;-84
2023/07/03 02:30:38;;;;;;;7.63;3.57;;;16.50;99.90;;;;;;5074785;28;20827;-84
2023/07/03 02:33:05;;;;;;;6.93;3.97;;;16.50;99.90;;;;;;5075682;28;20453;-84
2023/07/03 02:35:32;;;;;;;6.03;2.80;;;16.50;99.90;;;;;;5075361;28;20940;-84
2023/07/03 02:37:58;;;;;;;6.57;3.17;;;16.50;99.90;;;;;;5075505;28;20469;-84
2023/07/03 02:40:25;;;;;;;7.73;2.73;;;16.50;99.90;;;;;;5075319;28;20448;-84
2023/07/03 02:42:52;;;;;;;9.33;3.70;;;16.50;99.90;;;;;;5075533;28;20445;-84
2023/07/03 02:45:19;;;;;;;8.90;3.20;;;16.50;99.90;;;;;;5075200;28;21055;-84
2023/07/03 02:47:47;;;;;;;7.17;2.93;;;16.50;99.90;;;;;;5075347;28;20443;-84
2023/07/03 02:50:14;;;;;;;6.40;3.23;;;16.50;99.90;;;;;;5075376;28;20453;-84
2023/07/03 02:52:41;;;;;;;7.40;3.50;;;16.40;99.90;;;;;;5075341;28;20445;-84
2023/07/03 02:55:08;;;;;;;8.60;3.37;;;16.40;99.90;;;;;;5075514;28;20522;-84
2023/07/03 02:57:35;;;;;;;7.50;2.67;;;16.30;99.90;;;;;;5075359;28;20508;-84
2023/07/03 03:00:02;;;;;;;15.10;3.40;;;16.40;99.90;;;;;;5075131;28;20469;-84
2023/07/03 03:02:29;;;;;;;10.57;3.10;;;16.40;99.90;;;;;;5075069;28;20444;-84
2023/07/03 03:04:57;;;;;;;8.90;3.13;;;16.40;99.90;;;;;;5075119;28;20457;-84
2023/07/03 03:07:23;;;;;;;12.67;2.90;;;16.40;99.90;;;;;;5075062;28;20452;-84
2023/07/03 03:09:50;;;;;;;4.83;2.40;;;16.40;99.90;;;;;;5074912;28;20473;-84
2023/07/03 03:12:17;;;;;;;8.07;3.70;;;16.40;99.90;;;;;;5074922;28;20449;-84
2023/07/03 03:14:43;;;;;;;7.60;2.93;;;16.50;99.90;;;;;;5074898;28;20453;-84
2023/07/03 03:17:10;;;;;;;5.73;2.53;;;16.50;99.90;;;;;;5074787;28;20460;-83
2023/07/03 03:19:37;;;;;;;5.03;2.60;;;16.50;99.90;;;;;;5074465;28;20996;-84
2023/07/03 03:22:05;;;;;;;10.47;2.90;;;16.60;99.90;;;;;;5074726;28;20453;-84
2023/07/03 03:24:32;;;;;;;8.57;3.10;;;16.60;99.90;;;;;;5074704;28;20807;-84
2023/07/03 03:27:05;;;;;;;6.03;3.13;;;16.60;99.90;;;;;;5074607;28;20448;-84
2023/07/03 03:29:32;;;;;;;8.13;4.20;;;16.60;99.90;;;;;;5074115;28;20481;-84
2023/07/03 03:31:58;;;;;;;4.97;2.50;;;16.60;99.90;;;;;;5074510;28;20441;-84
2023/07/03 03:34:25;;;;;;;10.47;2.77;;;16.50;99.90;;;;;;5076466;28;20448;-84
2023/07/03 03:36:52;;;;;;;15.73;2.53;;;16.50;99.90;;;;;;5074160;28;20456;-83
2023/07/03 03:39:20;;;;;;;5.93;3.10;;;16.50;99.90;;;;;;5074484;28;20480;-85
2023/07/03 03:41:47;;;;;;;3.43;2.77;;;16.40;99.90;;;;;;5074201;28;20809;-84
2023/07/03 03:44:13;;;;;;;7.50;2.87;;;16.40;99.90;;;;;;5073942;28;20453;-84
2023/07/03 03:46:40;;;;;;;8.20;2.93;;;16.40;99.90;;;;;;5074266;28;20452;-84
2023/07/03 03:49:09;;;;;;;7.20;3.50;;;16.40;99.90;;;;;;5074183;28;20460;-84
2023/07/03 03:51:35;;;;;;;6.40;2.57;;;16.30;99.90;;;;;;5074150;28;20502;-84
2023/07/03 03:54:03;;;;;;;10.93;3.60;;;16.40;99.90;;;;;;5074131;28;20471;-84
2023/07/03 03:56:31;;;;;;;14.40;3.80;;;16.40;99.90;;;;;;5074091;28;20456;-84
2023/07/03 03:58:58;;;;;;;9.47;3.33;;;16.40;99.90;;;;;;5073879;28;20495;-83
2023/07/03 04:01:24;;;;;;;5.03;2.40;;;16.40;99.90;;;;;;5073657;28;20820;-84
2023/07/03 04:03:51;;;;;;;4.33;2.47;;;16.50;99.90;;;;;;5073937;28;20456;-84
2023/07/03 04:06:18;;;;;;;8.60;2.80;;;16.50;99.90;;;;;;5073889;28;20459;-84
2023/07/03 04:08:45;;;;;;;7.97;3.87;;;16.50;99.90;;;;;;5073784;28;20472;-84
2023/07/03 04:11:12;;;;;;;6.03;2.80;;;16.50;99.90;;;;;;5073794;28;20452;-84
2023/07/03 04:13:40;;;;;;;7.30;2.50;;;16.60;99.90;;;;;;5073507;28;20959;-84
2023/07/03 04:16:06;;;;;;;11.00;3.57;;;16.60;99.90;;;;;;5073803;28;20472;-84
2023/07/03 04:18:33;;;;;;;10.57;4.00;;;16.60;99.90;;;;;;5073573;28;20488;-84
2023/07/03 04:21:00;;;;;;;8.67;3.97;;;16.50;99.90;;;;;;5073661;28;20460;-84
2023/07/03 04:23:29;;;;;;;6.80;2.67;;;16.50;99.90;;;;;;5073361;28;20450;-84
2023/07/03 04:25:56;;;;;;;6.77;3.00;;;16.50;99.90;;;;;;5073593;28;20441;-84
2023/07/03 04:28:24;;;;;;;6.30;2.23;;;16.50;99.90;;;;;;5073373;28;20476;-84
2023/07/03 04:30:52;;;;;;;5.53;2.47;;;16.50;99.90;;;;;;5073548;28;20453;-84
2023/07/03 04:33:19;;;;;;;12.50;3.20;;;16.50;99.90;;;;;;5073491;28;20440;-84
2023/07/03 04:35:47;;;;;;;6.10;3.23;;;16.60;99.90;;;;;;5073496;28;20457;-84
2023/07/03 04:38:17;;;;;;;7.93;2.70;;;16.70;99.90;;;;;;5073055;28;20854;-84
2023/07/03 04:40:44;;;;;;;6.47;4.10;;;16.70;99.90;;;;;;5073451;28;20480;-84
2023/07/03 04:43:11;;;;;;;4.47;2.80;;;16.70;99.90;;;;;;5073207;28;20441;-84
2023/07/03 04:45:40;;;;;;;5.80;3.53;;;16.70;99.90;;;;;;5073379;28;20453;-85
2023/07/03 04:48:09;;;;;;;8.47;3.80;;;16.80;99.90;;;;;;5073272;28;20563;-84
2023/07/03 04:50:35;;;;;;;7.03;2.47;;;16.90;99.90;;;;;;5073563;28;20490;-84
2023/07/03 04:53:03;;;;;;;3.37;1.90;;;16.90;99.90;;;;;;5072795;28;20449;-84
2023/07/03 04:55:30;;;;;;;12.17;3.47;;;17.00;99.90;;;;;;5073014;28;20932;-84
2023/07/03 04:57:57;;;;;;;7.90;3.00;;;17.10;99.90;;;;;;5073160;28;20500;-84
2023/07/03 05:00:24;;;;;;;5.13;2.30;;;17.10;99.90;;;;;;5073302;28;21006;-84
2023/07/03 05:02:52;;;;;;;4.50;2.03;;;17.20;99.90;;;;;;5073201;28;20477;-84
2023/07/03 05:05:20;;;;;;;4.10;1.87;;;17.30;99.90;;;;;;5072913;28;20933;-84
2023/07/03 05:07:47;;;;;;;6.13;2.17;;;17.40;99.90;;;;;;5073152;28;20498;-84
2023/07/03 05:10:16;;;;;;;6.67;2.80;;;17.50;99.90;;;;;;5072910;28;21051;-85
2023/07/03 05:12:43;;;;;;;10.00;3.83;;;17.60;99.90;;;;;;5072827;28;20455;-84
2023/07/03 05:15:13;;;;;;;6.60;2.90;;;17.70;99.90;;;;;;5072800;28;20448;-84
2023/07/03 05:17:40;;;;;;;6.07;2.57;;;17.70;99.90;;;;;;5073054;28;20477;-84
2023/07/03 05:20:10;;;;;;;10.33;2.33;;;17.80;99.90;;;;;;5072949;28;20473;-84
2023/07/03 05:22:39;;;;;;;3.90;2.10;;;17.80;99.90;;;;;;5073097;28;20860;-83
2023/07/03 05:25:07;;;;;;;6.80;2.70;;;17.80;99.90;;;;;;5072718;28;20440;-84
2023/07/03 05:27:34;;;;;;;4.40;2.23;;;17.90;99.90;;;;;;5072734;28;20457;-84
2023/07/03 05:30:02;;;;;;;7.93;2.60;;;17.90;99.90;;;;;;5073154;28;20472;-84
2023/07/03 05:32:29;;;;;;;5.00;2.60;;;17.90;99.90;;;;;;5072894;28;20452;-84
2023/07/03 05:34:55;;;;;;;4.13;2.17;;;18.00;99.90;;;;;;5072967;28;20449;-84
2023/07/03 05:37:22;;;;;;;7.30;3.90;;;18.10;99.90;;;;;;5072834;28;20445;-84
2023/07/03 05:39:50;;;;;;;5.27;3.33;;;18.20;99.90;;;;;;5072448;28;20488;-84
2023/07/03 05:42:18;;;;;;;7.40;2.53;;;18.30;99.90;;;;;;5072867;28;20445;-84
2023/07/03 05:44:45;;;;;;;5.80;2.37;;;18.20;99.90;;;;;;5072829;28;20441;-84
2023/07/03 05:47:12;;;;;;;7.00;2.70;;;18.40;99.90;;;;;;5073327;28;20449;-84
2023/07/03 05:49:39;;;;;;;6.03;2.50;;;18.50;99.90;;;;;;5072320;28;20472;-84
2023/07/03 05:52:07;;;;;;;6.30;2.60;;;18.60;99.90;;;;;;5072466;28;20460;-84
2023/07/03 05:54:33;;;;;;;9.53;3.00;;;18.60;99.90;;;;;;5072742;28;20460;-82
2023/07/03 05:57:05;;;;;;;3.50;2.63;;;18.40;99.90;;;;;;5072421;28;20963;-82
2023/07/03 05:59:31;;;;;;;4.33;2.10;;;18.40;99.90;;;;;;5072531;28;20538;-82
2023/07/03 06:01:58;;;;;;;5.37;2.50;;;18.40;99.90;;;;;;5072521;28;20445;-82
2023/07/03 06:04:25;;;;;;;4.80;2.33;;;18.50;99.90;;;;;;5072577;28;20449;-82
2023/07/03 06:06:55;;;;;;;6.87;3.00;;;18.70;99.90;;;;;;5075062;28;20785;-82
2023/07/03 06:09:22;;;;;;;5.60;2.83;;;18.80;99.90;;;;;;5075712;28;20980;-82
2023/07/03 06:11:49;;;;;;;6.23;2.53;;;18.80;99.90;;;;;;5076344;28;20797;-82
2023/07/03 06:14:18;;;;;;;4.50;2.23;;;18.90;99.90;;;;;;5076062;28;20448;-82
2023/07/03 06:16:45;;;;;;;4.90;2.40;;;18.90;99.90;;;;;;5075980;28;20444;-82
2023/07/03 06:19:13;;;;;;;10.10;2.80;;;19.00;99.90;;;;;;5075774;28;20481;-82
2023/07/03 06:21:40;;;;;;;4.47;2.17;;;19.10;99.90;;;;;;5075888;28;20793;-82
2023/07/03 06:24:09;;;;;;;7.40;2.23;;;19.20;99.90;;;;;;5076170;28;20448;-85
2023/07/03 06:26:38;;;;;;;5.00;1.93;;;19.20;99.90;;;;;;5075552;28;20429;-85
2023/07/03 06:29:06;;;;;;;4.27;2.17;;;19.30;99.90;;;;;;5075282;28;21065;-85
2023/07/03 06:31:34;;;;;;;5.50;2.83;;;19.20;99.90;;;;;;5075629;28;20463;-85
2023/07/03 06:34:01;;;;;;;3.23;1.63;;;19.20;99.90;;;;;;5075752;28;20421;-84
2023/07/03 06:36:28;;;;;;;6.20;2.43;;;19.20;99.90;;;;;;5075711;28;20451;-85
2023/07/03 06:38:56;;;;;;;5.33;3.20;;;19.20;99.90;;;;;;5075505;28;20476;-85
2023/07/03 06:41:25;;;;;;;2.70;1.87;;;19.20;99.90;;;;;;5075727;28;20437;-82
2023/07/03 06:43:52;;;;;;;6.80;2.10;;;19.30;99.90;;;;;;5075420;28;20814;-82
2023/07/03 06:46:19;;;;;;;5.60;1.70;;;19.30;99.90;;;;;;5075298;28;20949;-83
2023/07/03 06:48:47;;;;;;;3.70;1.90;;;19.40;99.90;;;;;;5075289;28;20464;-82
2023/07/03 06:51:14;;;;;;;8.10;3.00;;;19.40;99.90;;;;;;5075369;28;20452;-82
2023/07/03 06:53:41;;;;;;;4.80;2.37;;;19.50;99.90;;;;;;5075332;28;20445;-83
2023/07/03 06:56:09;;;;;;;3.83;2.90;;;19.50;99.90;;;;;;5074972;28;20451;-82
2023/07/03 06:58:37;;;;;;;5.07;1.90;;;19.50;99.90;;;;;;5075168;28;20489;-82
2023/07/03 07:01:08;;;;;;;4.93;1.93;;;19.60;99.90;;;;;;5075107;28;20441;-82
2023/07/03 07:03:35;;;;;;;4.90;2.43;;;19.70;99.90;;;;;;5075172;28;20510;-82
2023/07/03 07:06:09;;;;;;;5.60;2.60;;;19.90;99.90;;;;;;5075105;28;20456;-82
2023/07/03 07:08:36;;;;;;;6.40;2.43;;;19.90;99.90;;;;;;5075027;28;20517;-83
2023/07/03 07:11:03;;;;;;;4.70;2.77;;;20.20;99.90;;;;;;5074648;28;20436;-83
2023/07/03 07:13:30;;;;;;;8.70;2.80;;;20.30;99.90;;;;;;5075662;28;20456;-84
2023/07/03 07:15:56;;;;;;;5.50;2.07;;;20.30;99.90;;;;;;5074117;28;20944;-85
2023/07/03 07:18:23;;;;;;;5.40;2.73;;;20.30;99.90;;;;;;5074581;28;20469;-83
2023/07/03 07:20:50;;;;;;;3.97;2.30;;;20.00;99.90;;;;;;5074612;28;20444;-83
2023/07/03 07:23:18;;;;;;;4.63;2.33;;;19.90;99.90;;;;;;5074635;28;20441;-83
2023/07/03 07:25:53;;;;;;;7.43;2.70;;;19.90;99.90;;;;;;5074612;28;20803;-82
2023/07/03 07:28:20;;;;;;;5.87;2.70;;;19.80;99.90;;;;;;5074130;28;20492;-82
2023/07/03 07:30:47;;;;;;;5.40;2.80;;;19.90;99.90;;;;;;5074247;28;20444;-83
2023/07/03 07:33:14;;;;;;;5.80;2.13;;;20.00;99.90;;;;;;5074456;28;20456;-83
2023/07/03 07:35:42;;;;;;;3.80;2.00;;;20.20;99.90;;;;;;5074686;28;20444;-87
2023/07/03 07:38:09;;;;;;;6.60;2.53;;;20.40;99.90;;;;;;5074426;28;20468;-85
2023/07/03 07:40:37;;;;;;;4.27;2.20;;;20.70;99.90;;;;;;5074416;28;20468;-84
2023/07/03 07:43:03;;;;;;;6.83;2.97;;;20.90;99.90;;;;;;5074415;28;20452;-84
2023/07/03 07:45:31;;;;;;;11.17;2.77;;;21.30;99.90;;;;;;5074050;28;20939;-84
2023/07/03 07:47:59;;;;;;;4.37;2.23;;;21.80;99.90;;;;;;5074289;28;20417;-84
2023/07/03 07:50:27;;;;;;;5.37;2.77;;;22.40;99.90;;;;;;5074482;28;20441;-85
2023/07/03 07:52:55;;;;;;;8.63;2.67;;;22.80;99.90;;;;;;5074212;28;20456;-85
2023/07/03 07:55:22;;;;;;;4.70;2.10;;;23.00;99.90;;;;;;5073830;28;20452;-85
2023/07/03 07:57:50;;;;;;;5.60;2.00;;;23.10;99.90;;;;;;5073999;28;20444;-85
2023/07/03 08:00:18;;;;;;;4.07;2.80;;;23.20;99.90;;;;;;5073971;28;20222;-85
2023/07/03 08:02:44;;;;;;;2.40;1.87;;;23.10;99.90;;;;;;5074005;28;20213;-84
2023/07/03 08:05:11;;;;;;;5.03;2.30;;;23.00;99.90;;;;;;5073966;28;20205;-85
2023/07/03 08:07:38;;;;;;;2.13;1.90;;;22.80;99.90;;;;;;5073952;28;20206;-84
2023/07/03 08:10:06;;;;;;;7.07;2.57;;;22.80;99.90;;;;;;5073845;28;20490;-84
2023/07/03 08:12:33;;;;;;;3.00;2.40;;;22.90;99.90;;;;;;5073871;28;20456;-84
2023/07/03 08:15:03;;;;;;;7.43;2.40;;;22.90;99.90;;;;;;5073913;28;20210;-85
2023/07/03 08:17:30;;;;;;;5.60;2.43;;;22.90;99.90;;;;;;5073887;28;20194;-85
2023/07/03 08:19:57;;;;;;;7.03;2.10;;;22.80;99.90;;;;;;5074382;28;20233;-84
2023/07/03 08:22:23;;;;;;;2.83;1.93;;;22.80;99.90;;;;;;5073731;28;20198;-85
2023/07/03 08:24:50;;;;;;;3.57;2.43;;;22.90;99.90;;;;;;5073657;28;20581;-84
2023/07/03 08:27:17;;;;;;;5.65;2.30;;;23.10;99.90;;;;;;5073279;28;20696;-85
2023/07/03 08:29:44;;;;;;;4.70;2.70;;;23.00;99.30;;;;;;5072392;28;20238;-84
2023/07/03 08:32:12;;;;;;;2.97;1.80;;;23.10;99.90;;;;;;5073537;28;20206;-84
2023/07/03 08:34:38;;;;;;;3.65;2.35;;;23.50;99.60;;;;;;5073547;28;20210;-84
2023/07/03 08:37:06;;;;;;;5.75;2.13;;;24.30;99.50;;;;;;5073510;28;20209;-84
2023/07/03 08:39:33;;;;;;;3.70;1.70;;;24.40;95.80;;;;;;5073493;28;20229;-84
2023/07/03 08:42:06;;;;;;;3.60;1.63;;;24.20;96.30;;;;;;5073487;28;20202;-84
2023/07/03 08:44:33;;;;;;;2.78;1.77;;;23.80;95.80;;;;;;5073491;28;20193;-84
2023/07/03 08:47:03;;;;;;;3.05;2.00;;;23.40;95.90;;;;;;5073365;28;20201;-84
2023/07/03 08:49:32;;;;;;;2.40;1.48;;;22.90;96.30;;;;;;5073101;28;20724;-84
2023/07/03 08:52:02;;;;;;;4.07;1.80;;;22.70;96.50;;;;;;5073944;28;20560;-85
2023/07/03 08:54:35;;;;;;;2.53;2.33;;;22.50;96.90;;;;;;5073563;28;20202;-84
2023/07/03 08:57:04;;;;;;;5.80;2.27;;;22.80;97.60;;;;;;5073358;28;20190;-85
2023/07/03 08:59:31;;;;;;;4.60;2.10;;;23.00;97.80;;;;;;5073205;28;20238;-84
2023/07/03 09:02:03;;;;;;;7.28;1.77;;;23.20;97.40;;;;;;5073269;28;20201;-84
2023/07/03 09:04:44;;;;;;;3.10;1.55;;;23.20;97.50;;;;;;5073007;28;20646;-84
2023/07/03 09:07:14;;;;;;;4.60;2.00;;;23.30;97.40;;;;;;5073272;28;20186;-84
2023/07/03 09:09:50;;;;;;;6.30;2.57;;;23.40;96.70;;;;;;5073081;28;20275;-83
2023/07/03 09:12:21;;;;;;;4.72;1.70;;;23.50;97.00;;;;;;5073221;28;20186;-84
2023/07/03 09:14:54;;;;;;;4.50;1.75;;;24.00;96.50;;;;;;5073417;28;20193;-84
2023/07/03 09:17:22;;;;;;;5.55;2.45;;;24.60;96.00;;;;;;5073175;28;20200;-84
2023/07/03 09:19:51;;;;;;;4.00;2.15;;;24.90;93.90;;;;;;5072664;28;20230;-84
2023/07/03 09:22:25;;;;;;;4.65;2.00;;;24.70;94.10;;;;;;5073129;28;20202;-84
2023/07/03 09:24:56;;;;;;;5.45;2.05;;;24.50;94.10;;;;;;5073126;28;20197;-84
2023/07/03 09:27:26;;;;;;;2.28;1.80;;;24.40;94.70;;;;;;5072941;28;20221;-82
2023/07/03 09:29:55;;;;;;;2.92;1.77;;;24.40;95.20;;;;;;5073220;28;20233;-83
2023/07/03 09:32:25;;;;;;;2.65;1.88;;;24.50;94.50;;;;;;5073277;28;20213;-84
2023/07/03 09:35:01;;;;;;;2.30;1.70;;;24.40;94.70;;;;;;5072989;28;20228;-83
2023/07/03 09:37:28;;;;;;;3.05;1.92;;;24.30;94.50;;;;;;5072955;28;20202;-84
2023/07/03 09:39:55;;;;;;;2.15;1.10;;;23.80;93.30;;;;;;5074236;28;20652;-84
2023/07/03 09:42:22;;;;;;;1.70;1.60;;;23.50;93.40;;;;;;5076693;28;20206;-84
2023/07/03 09:44:51;;;;;;;4.75;1.55;;;23.30;93.60;;;;;;5076697;28;20226;-84
2023/07/03 09:47:21;;;;;;;3.17;1.60;;;23.20;93.80;;;;;;5076567;28;20251;-83
2023/07/03 09:49:48;;;;;;;4.50;1.90;;;23.30;94.30;;;;;;5077099;28;20313;-83
2023/07/03 09:52:17;;;;;;;4.50;1.43;;;23.20;93.50;;;;;;5076576;28;20202;-84
2023/07/03 09:54:45;;;;;;;3.03;1.40;;;23.20;93.70;;;;;;5076509;28;20202;-83
2023/07/03 09:57:25;;;;;;;3.00;1.50;;;23.20;93.90;;;;;;5076128;28;20202;-84
2023/07/03 09:59:54;;;;;;;4.57;1.67;;;23.20;94.10;;;;;;5076330;28;20225;-84
2023/07/03 10:02:22;;;;;;;3.60;1.30;;;23.10;92.80;;;;;;5076019;28;20202;-85
2023/07/03 10:04:50;;;;;;;3.30;1.33;;;23.20;93.30;;;;;;5076016;28;20198;-84
2023/07/03 10:07:18;;;;;;;2.23;1.57;;;23.50;94.00;;;;;;5076282;28;20198;-84
2023/07/03 10:09:46;;;;;;;2.77;1.10;;;23.50;92.90;;;;;;5075948;28;20638;-83
2023/07/03 10:12:23;;;;;;;2.90;1.80;;;23.40;92.70;;;;;;5076161;28;20327;-85
2023/07/03 10:14:55;;;;;;;6.00;1.20;;;23.20;93.40;;;;;;5075867;28;20916;-84
2023/07/03 10:17:27;;;;;;;2.60;1.23;;;22.90;93.00;;;;;;5076124;28;20279;-83
2023/07/03 10:19:59;;;;;;;4.10;2.00;;;22.80;92.90;;;;;;5075805;28;20999;-83
2023/07/03 10:22:27;;;;;;;3.03;1.80;;;22.70;93.30;;;;;;5076034;28;20432;-83
2023/07/03 10:24:58;;;;;;;1.67;1.57;;;22.80;93.80;;;;;;5076646;28;20450;-83
2023/07/03 10:27:28;;;;;;;4.20;1.97;;;23.00;93.90;;;;;;5075737;28;20240;-83
2023/07/03 10:29:56;;;;;;;5.30;1.53;;;23.30;93.00;;;;;;5075863;28;20539;-83
2023/07/03 10:32:27;;;;;;;2.00;1.10;;;23.50;93.10;;;;;;5075702;28;20814;-83
2023/07/03 10:35:00;;;;;;;2.60;0.93;;;23.80;91.20;;;;;;5076667;28;20187;-83
2023/07/03 10:37:32;;;;;;;2.58;0.80;;;24.00;90.00;;;;;;5075807;28;20186;-83
2023/07/03 10:40:09;;;;;;;3.20;1.30;;;24.30;90.10;;;;;;5075647;28;20226;-83
2023/07/03 10:42:42;;;;;;;1.00;1.00;;;24.30;86.40;;;;;;5075655;28;20228;-83
2023/07/03 10:45:13;;;;;;;2.53;1.25;;;24.10;87.70;;;;;;5075584;28;20190;-83
2023/07/03 10:47:47;;;;;;;4.07;1.33;;;24.10;90.00;;;;;;5075537;28;20197;-83
2023/07/03 10:50:14;;;;;;;1.20;0.82;;;23.80;89.10;;;;;;5075538;28;20524;-82
2023/07/03 10:52:48;;;;;;;2.20;1.20;;;23.60;90.40;;;;;;5074669;28;20206;-84
2023/07/03 10:55:22;;;;;;;1.00;0.90;;;23.50;90.60;;;;;;5075475;28;20193;-83
2023/07/03 10:57:58;;;;;;;1.20;0.73;;;23.50;91.30;;;;;;5075331;28;20192;-83
2023/07/03 11:00:33;;;;;;;1.43;0.90;;;23.50;90.70;;;;;;5076069;28;20212;-83
2023/07/03 11:03:11;;;;;;;1.90;1.20;;;23.50;91.20;;;;;;5075296;28;20189;-83
2023/07/03 11:05:43;;;;;;;2.97;1.10;;;24.00;92.30;;;;;;5075226;28;20186;-85
2023/07/03 11:08:18;;;;;;;1.77;1.25;;;24.50;90.30;;;;;;5075165;28;20222;-82
2023/07/03 11:10:49;;;;;;;6.85;1.38;;;24.40;88.50;;;;;;5074833;28;20186;-83
2023/07/03 11:13:19;;;;;;;1.27;1.17;;;24.20;89.30;;;;;;5075057;28;20189;-84
2023/07/03 11:15:55;;;;;;;2.10;0.80;;;24.00;91.00;;;;;;5075809;28;20237;-83
2023/07/03 11:18:39;;;;;;;2.88;1.02;;;23.80;91.00;;;;;;5074893;28;20229;-83
2023/07/03 11:21:13;;;;;;;1.02;0.75;;;23.80;90.70;;;;;;5074865;28;20291;-83
2023/07/03 11:23:51;;;;;;;1.30;1.20;;;23.70;91.00;;;;;;5074640;28;20201;-83
2023/07/03 11:26:24;;;;;;;3.20;1.00;;;23.50;90.80;;;;;;5074481;28;20642;-83
2023/07/03 11:28:54;;;;;;;2.05;0.80;;;23.50;91.10;;;;;;5074200;28;20273;-83
2023/07/03 11:31:21;;;;;;;1.10;0.87;;;23.40;91.50;;;;;;5074711;28;20202;-81
2023/07/03 11:33:48;;;;;;;1.90;1.10;;;23.40;91.80;;;;;;5074575;28;20209;-82
2023/07/03 11:36:35;;;;;;;1.30;0.90;;;23.40;91.60;;;;;;5074609;28;20263;-82
2023/07/03 11:39:20;;;;;;;2.17;1.20;;;23.30;92.00;;;;;;5074146;28;20222;-82
2023/07/03 11:41:51;;;;;;;1.57;1.00;;;23.30;92.40;;;;;;5074581;28;20210;-81
2023/07/03 11:44:19;;;;;;;2.70;1.10;;;23.40;92.70;;;;;;5074684;28;20202;-81
2023/07/03 11:46:52;;;;;;;1.73;1.20;;;23.60;92.90;;;;;;5074353;28;20186;-81
2023/07/03 11:49:19;;;;;;;1.60;1.20;;;23.70;92.20;;;;;;5074417;28;20631;-81
2023/07/03 11:51:46;;;;;;;1.80;0.93;;;23.70;92.20;;;;;;5074256;28;20206;-82
2023/07/03 11:54:20;;;;;;;2.10;1.10;;;23.70;92.50;;;;;;5074192;28;20205;-81
2023/07/03 11:56:50;;;;;;;1.10;0.90;;;23.60;91.70;;;;;;5074257;28;20194;-82
2023/07/03 11:59:37;;;;;;;1.30;1.20;;;23.50;92.90;;;;;;5074061;28;20299;-81
2023/07/03 12:02:46;;;;;;;1.67;1.10;;;23.60;92.40;;;;;;5073656;28;20230;-81
2023/07/03 12:05:51;;;;;;;1.33;1.20;;;23.40;92.70;;;;;;5074012;28;20186;-83
2023/07/03 12:08:46;;;;;;;1.77;1.17;;;23.30;92.70;;;;;;5073903;28;20221;-83
2023/07/03 12:11:15;;;;;;;2.10;0.80;;;23.30;92.10;;;;;;5073958;28;20265;-83
2023/07/03 12:13:51;;;;;;;0.97;0.90;;;23.30;92.70;;;;;;5073954;28;20197;-83
2023/07/03 12:16:19;;;;;;;4.83;1.30;;;23.30;92.90;;;;;;5074408;28;20181;-83
2023/07/03 12:18:57;;;;;;;0.70;0.70;;;23.20;92.60;;;;;;5073432;28;20222;-83
2023/07/03 12:21:24;;;;;;;1.23;0.87;;;23.20;93.50;;;;;;5073743;28;20206;-83
2023/07/03 12:23:52;;;;;;;1.13;0.97;;;23.20;92.90;;;;;;5073751;28;20213;-83
2023/07/03 12:26:21;;;;;;;3.20;1.20;;;23.30;93.00;;;;;;5073381;28;20255;-83
2023/07/03 12:28:48;;;;;;;1.83;1.30;;;23.40;92.40;;;;;;5073028;28;20654;-83
2023/07/03 12:31:18;;;;;;;3.33;1.13;;;23.40;92.50;;;;;;5073625;28;20198;-83
2023/07/03 12:33:51;;;;;;;2.10;0.80;;;23.50;92.10;;;;;;5073792;28;20188;-83
2023/07/03 12:36:23;;;;;;;2.77;0.90;;;23.40;92.30;;;;;;5073580;28;20202;-83
2023/07/03 12:38:50;;;;;;;1.60;1.10;;;23.40;92.70;;;;;;5073608;28;20226;-83
2023/07/03 12:41:25;;;;;;;1.43;1.23;;;23.50;93.00;;;;;;5073452;28;20221;-83
2023/07/03 12:43:52;;;;;;;1.33;0.90;;;23.50;93.80;;;;;;5073593;28;20197;-83
2023/07/03 12:46:30;;;;;;;3.97;1.20;;;23.60;93.20;;;;;;5073549;28;20207;-83
2023/07/03 12:49:08;;;;;;;5.97;1.13;;;23.60;93.20;;;;;;5073436;28;20222;-83
2023/07/03 12:51:41;;;;;;;2.20;1.10;;;23.60;92.40;;;;;;5073447;28;20182;-83
2023/07/03 12:54:09;;;;;;;1.10;0.67;;;23.50;93.20;;;;;;5073446;28;20555;-83
2023/07/03 12:56:39;;;;;;;3.13;1.23;;;23.40;92.90;;;;;;5073422;28;20372;-83